KJGG

Williamsburg-Jamestown Airport

Williamsburg, Virginia, USA
METAR KJGG 181555Z AUTO 33008KT 10SM CLR 16/01 A3044 RMK AO1
Observed Flight Rules
Oct-18 @ 15:55 UTC (19 minutes ago) Visual Flight Rules
Wind Visibility Clouds
330° at 8 knots 10 miles
  • Clear skies
Temperatures Readings
Current 16°C / 61°F
Dewpoint 1°C / 34°F
Humidity 36%
Altimeter 30.44" Hg
Pressure 1031 hPa
Elevation 15
METAR KJGG 181555Z AUTO 33008KT 10SM CLR 16/01 A3044 RMK AO1
Observed Flight Rules
Oct-18 @ 15:55 UTC
(19 minutes ago)
VFR
Wind Visibility
330° at 8 knots 10 miles
Clouds
  • Clear skies
Temperature Dewpoint
16°C / 61°F 1°C / 34°F
Humidity Altimeter Pressure
36% 30.44" Hg 1031 hPa